Doak Springs, Texas
Current Conditions -  °F | °C
As of 12:55 PM on Thursday 23 Oct 2014 (Local Time) from KGYB Reporting Station
Broken Clouds Broken Clouds  
Wind Chill: 76°   Ceiling: 11000
Heat Index: 78°   Visibility: 10mi
Dew Point: 56°   Wind: 0mph
Humidity: 50%   Direction: NA
Pressure: 30.17"   Gusts: NA
Location:  30.3175°N, 96.9747°W
Report Text: KGYB 231755Z AUTO 00000KT 10SM BKN110 25/14 A3017 RMK AO2 T02460136 10246 20166
Loading
Personal Weather Stations






























Interactive Weather Map
Tropical Storm Tracking
New forecast layout! Learn more

10-Day Weather Forecast

Advertisements
Track Severe Weather on mobile